Impacts TAF Board
For situational awareness. Not to be used for flight planning purposes.
IDs:

KTPA - Tampa Intl Arpt, FL, US

Issued at 0309 UTC 20 Mar 2019
Updated at 0337 UTC 20 Mar 2019
Potential Impact None Slight Moderate High
Time0253Z 20/04Z 20/05Z 20/06Z 20/07Z 20/08Z 20/09Z 20/10Z 20/11Z 20/12Z 20/13Z 20/14Z 20/15Z 20/16Z>>
Type OBS PRVL PRVL PRVL PRVL PRVL PRVL PRVL PRVL PRVL PRVL PRVL PRVL PRVL
VIS 10 >6 >6 >6 >6 >6 >6 >6 >6 >6 >6 >6 >6 >6
CIG 70 50 50 50 50 50 50 50 50 50 50 50 50 50
Cover OVC OVC OVC OVC OVC OVC OVC OVC OVC OVC OVC OVC OVC OVC
FltCat VFR VFR VFR VFR VFR VFR VFR VFR VFR VFR VFR VFR VFR VFR
WX -- -- -- -- -- -- -- -- -- -- -- -- -- --
WDir 40 10 10 10 10 10 10 10 10 10 10 10 10 10
WSpd 9 7 7 7 7 7 7 7 7 7 7 7 7 7
WGst 16 -- -- -- -- -- -- -- -- -- -- -- -- --
Raw TAF
KTPA 200309Z 2003/2106 02006KT P6SM VCSH SCT025 OVC080
  FM200400 01007KT P6SM SCT025 OVC050
  FM201700 02010G15KT P6SM BKN040
  FM202100 01008KT P6SM BKN040


Raw METAR
KTPA 200253Z 04009G16KT 10SM SCT035 BKN070 OVC150 17/12 A3014 RMK AO2 SLP207 T01670122 53014
KTPA 200153Z 03012G18KT 10SM SCT018 BKN037 BKN060 OVC150 17/13 A3013 RMK AO2 SLP204 T01720128
KTPA 200053Z 02008KT 10SM SCT026 BKN038 BKN080 OVC150 17/14 A3010 RMK AO2 SLP194 T01720139

METAR Board
Radar Display
Forecast Discussion
For situational awareness. Not to be used for flight planning purposes.